Time;durP1;ratioP1;P1;durP2;ratioP2;P2;SDS_P1;SDS_P2;PMS_P1;PMS_P2;Temp;Humidity;BMP_temperature;BMP_pressure;BME280_temperature;BME280_humidity;BME280_pressure;Samples;Min_cycle;Max_cycle;Signal;HPM_P1;HPM_P2
2022/04/03 00:01:41;;;;;;;;;;;4.60;99.90;;;;;;4995820;28;19930;-84
2022/04/03 00:04:08;;;;;;;;;;;3.40;99.90;;;;;;4995660;28;19926;-84
2022/04/03 00:06:35;;;;;;;;;;;3.40;99.90;;;;;;4995722;28;19933;-84
2022/04/03 00:09:02;;;;;;;;;;;3.30;99.90;;;;;;4997368;28;19926;-84
2022/04/03 00:11:29;;;;;;;;;;;3.30;99.90;;;;;;4999811;28;19926;-84
2022/04/03 00:13:56;;;;;;;;;;;3.20;99.90;;;;;;5000849;28;20464;-83
2022/04/03 00:16:22;;;;;;;;;;;3.90;99.90;;;;;;5000550;28;19926;-83
2022/04/03 00:18:51;;;;;;;;;;;3.20;99.90;;;;;;4997347;28;20431;-83
2022/04/03 00:21:18;;;;;;;;;;;3.20;99.90;;;;;;4995374;28;19992;-84
2022/04/03 00:23:45;;;;;;;;;;;4.30;99.90;;;;;;4995081;28;20058;-84
2022/04/03 00:26:12;;;;;;;;;;;4.00;99.90;;;;;;4995186;28;19983;-83
2022/04/03 00:28:39;;;;;;;;;;;3.20;99.90;;;;;;4995138;28;20419;-84
2022/04/03 00:31:06;;;;;;;;;;;3.20;99.90;;;;;;4995383;28;19953;-84
2022/04/03 00:33:32;;;;;;;;;;;3.50;99.90;;;;;;4995060;28;19926;-84
2022/04/03 00:36:00;;;;;;;;;;;4.90;99.90;;;;;;4990107;28;20371;-83
2022/04/03 00:38:30;;;;;;;;;;;3.20;99.90;;;;;;4975660;28;19926;-84
2022/04/03 00:40:57;;;;;;;;;;;3.30;99.90;;;;;;4975911;28;19962;-82
2022/04/03 00:43:24;;;;;;;;;;;3.20;99.90;;;;;;4975703;28;19957;-83
2022/04/03 00:45:52;;;;;;;;;;;3.20;99.90;;;;;;4975035;28;19930;-84
2022/04/03 00:48:19;;;;;;;;;;;3.20;99.90;;;;;;4975516;28;19930;-85
2022/04/03 00:50:46;;;;;;;;;;;3.30;99.90;;;;;;4975525;28;19950;-84
2022/04/03 00:53:14;;;;;;;;;;;4.60;99.90;;;;;;4975665;28;19926;-83
2022/04/03 00:55:44;;;;;;;;;;;3.00;99.90;;;;;;4975239;28;19985;-85
2022/04/03 00:58:11;;;;;;;;;;;0.90;99.90;;;;;;4975424;28;20385;-84
2022/04/03 01:00:38;;;;;;;;;;;2.70;99.90;;;;;;4975299;28;19937;-84
2022/04/03 01:03:06;;;;;;;;;;;3.00;99.90;;;;;;4975138;28;20017;-84
2022/04/03 01:05:33;;;;;;;;;;;2.90;99.90;;;;;;4975360;28;20016;-84
2022/04/03 01:08:00;;;;;;;;;;;4.60;99.90;;;;;;4975312;28;20042;-84
2022/04/03 01:10:28;;;;;;;;;;;4.90;99.90;;;;;;4975452;28;19969;-84
2022/04/03 01:12:55;;;;;;;;;;;3.90;99.90;;;;;;4975343;28;19965;-84
2022/04/03 01:15:24;;;;;;;;;;;2.90;99.90;;;;;;4974996;28;19926;-83
2022/04/03 01:17:51;;;;;;;;;;;2.90;99.90;;;;;;4974911;28;19933;-85
2022/04/03 01:20:18;;;;;;;;;;;2.80;99.90;;;;;;4974959;28;20412;-85
2022/04/03 01:22:45;;;;;;;;;;;2.80;99.90;;;;;;4974220;28;20381;-85
2022/04/03 01:25:14;;;;;;;;;;;2.70;99.90;;;;;;4979393;28;19961;-85
2022/04/03 01:27:41;;;;;;;;;;;3.50;99.90;;;;;;4975352;28;19952;-85
2022/04/03 01:30:10;;;;;;;;;;;2.50;99.90;;;;;;4974942;28;19926;-84
2022/04/03 01:32:37;;;;;;;;;;;2.70;99.90;;;;;;4975036;28;19930;-85
2022/04/03 01:35:04;;;;;;;;;;;2.40;99.90;;;;;;4975151;28;19926;-85
2022/04/03 01:37:31;;;;;;;;;;;2.50;99.90;;;;;;4974975;28;19926;-85
2022/04/03 01:39:58;;;;;;;;;;;1.60;99.90;;;;;;4974904;28;20029;-85
2022/04/03 01:42:26;;;;;;;;;;;3.30;99.90;;;;;;4974795;28;19977;-85
2022/04/03 01:44:53;;;;;;;;;;;3.20;99.90;;;;;;4974625;28;19926;-85
2022/04/03 01:47:19;;;;;;;;;;;2.50;99.90;;;;;;4975091;28;19980;-85
2022/04/03 01:49:46;;;;;;;;;;;2.60;99.90;;;;;;4974917;28;19981;-84
2022/04/03 01:52:13;;;;;;;;;;;2.40;99.90;;;;;;4974654;28;19926;-84
2022/04/03 01:54:40;;;;;;;;;;;3.30;99.90;;;;;;4974899;28;20029;-84
2022/04/03 01:57:07;;;;;;;;;;;2.10;99.90;;;;;;4974406;28;20336;-83
2022/04/03 01:59:36;;;;;;;;;;;2.60;99.90;;;;;;4974810;28;19997;-85
2022/04/03 02:02:02;;;;;;;;;;;1.30;99.90;;;;;;4974697;28;20388;-85
2022/04/03 02:04:29;;;;;;;;;;;2.20;99.90;;;;;;4974862;28;19969;-85
2022/04/03 02:06:57;;;;;;;;;;;3.70;99.90;;;;;;4974782;28;19977;-85
2022/04/03 02:09:24;;;;;;;;;;;2.50;99.90;;;;;;4974402;28;19926;-85
2022/04/03 02:11:51;;;;;;;;;;;2.30;99.90;;;;;;4974357;28;20367;-85
2022/04/03 02:14:24;;;;;;;;;;;2.40;99.90;;;;;;4974735;28;19926;-85
2022/04/03 02:16:54;;;;;;;;;;;2.20;99.90;;;;;;4974478;28;19953;-85
2022/04/03 02:19:21;;;;;;;;;;;2.20;99.90;;;;;;4974751;28;19969;-85
2022/04/03 02:21:48;;;;;;;;;;;2.50;99.90;;;;;;4974649;28;19930;-85
2022/04/03 02:24:15;;;;;;;;;;;2.30;99.90;;;;;;4974143;28;20479;-85
2022/04/03 02:26:42;;;;;;;;;;;2.30;99.90;;;;;;4975099;28;19926;-84
2022/04/03 02:29:08;;;;;;;;;;;2.40;99.90;;;;;;4974571;28;19926;-84
2022/04/03 02:31:36;;;;;;;;;;;2.00;99.90;;;;;;4975278;28;19977;-85
2022/04/03 02:34:04;;;;;;;;;;;5.20;99.90;;;;;;4988842;28;19926;-83
2022/04/03 02:36:31;;;;;;;;;;;2.30;99.90;;;;;;4997679;28;19926;-84
2022/04/03 02:38:58;;;;;;;;;;;3.10;99.90;;;;;;4997150;28;19953;-84
2022/04/03 02:41:25;;;;;;;;;;;2.80;99.90;;;;;;4996756;28;19976;-83
2022/04/03 02:43:52;;;;;;;;;;;2.80;99.90;;;;;;4996499;28;20362;-83
2022/04/03 02:46:18;;;;;;;;;;;2.20;99.90;;;;;;4996559;28;19938;-83
2022/04/03 02:48:45;;;;;;;;;;;2.80;99.90;;;;;;4996786;28;19936;-83
2022/04/03 02:51:13;;;;;;;;;;;2.50;99.90;;;;;;4997174;28;19956;-84
2022/04/03 02:53:40;;;;;;;;;;;3.40;99.90;;;;;;4996957;28;19926;-83
2022/04/03 02:56:07;;;;;;;;;;;2.20;99.90;;;;;;4997183;28;20343;-84
2022/04/03 02:58:33;;;;;;;;;;;1.60;99.90;;;;;;4997102;28;20410;-84
2022/04/03 03:01:00;;;;;;;;;;;2.20;99.90;;;;;;4997262;28;20023;-84
2022/04/03 03:03:27;;;;;;;;;;;2.20;99.90;;;;;;4996789;28;20440;-84
2022/04/03 03:05:54;;;;;;;;;;;2.30;99.90;;;;;;4996888;28;20365;-85
2022/04/03 03:08:22;;;;;;;;;;;4.90;99.90;;;;;;4996576;28;19926;-84
2022/04/03 03:10:49;;;;;;;;;;;4.10;99.90;;;;;;4996518;28;19930;-85
2022/04/03 03:13:16;;;;;;;;;;;2.30;99.90;;;;;;4996877;28;20013;-84
2022/04/03 03:15:43;;;;;;;;;;;3.30;99.90;;;;;;4996881;28;19953;-84
2022/04/03 03:18:10;;;;;;;;;;;4.40;99.90;;;;;;4996952;28;19996;-84
2022/04/03 03:20:36;;;;;;;;;;;1.40;99.90;;;;;;4996383;28;19953;-84
2022/04/03 03:23:03;;;;;;;;;;;4.80;99.90;;;;;;4996730;28;19926;-82
2022/04/03 03:25:31;;;;;;;;;;;2.40;99.90;;;;;;4996207;28;19981;-85
2022/04/03 03:27:58;;;;;;;;;;;2.30;99.90;;;;;;4996558;28;20339;-85
2022/04/03 03:30:25;;;;;;;;;;;2.80;99.90;;;;;;4996715;28;19930;-82
2022/04/03 03:32:52;;;;;;;;;;;3.60;99.90;;;;;;4991807;28;20356;-83
2022/04/03 03:35:19;;;;;;;;;;;2.60;99.90;;;;;;4976805;28;19985;-84
2022/04/03 03:37:45;;;;;;;;;;;2.50;99.90;;;;;;4977108;28;19930;-82
2022/04/03 03:40:14;;;;;;;;;;;2.50;99.90;;;;;;4977074;28;19961;-82
2022/04/03 03:42:43;;;;;;;;;;;2.60;99.90;;;;;;4976871;28;19953;-83
2022/04/03 03:45:10;;;;;;;;;;;2.50;99.90;;;;;;4976568;28;19982;-85
2022/04/03 03:47:37;;;;;;;;;;;2.60;99.90;;;;;;4975993;28;19981;-85
2022/04/03 03:50:04;;;;;;;;;;;2.50;99.90;;;;;;4976612;28;19926;-85
2022/04/03 03:52:31;;;;;;;;;;;2.40;99.90;;;;;;4976393;28;19974;-85
2022/04/03 03:54:58;;;;;;;;;;;2.40;99.90;;;;;;4976776;28;19926;-85
2022/04/03 03:57:25;;;;;;;;;;;2.30;99.90;;;;;;4976331;28;19989;-82
2022/04/03 03:59:53;;;;;;;;;;;2.40;99.90;;;;;;4976268;28;20321;-83
2022/04/03 04:02:20;;;;;;;;;;;3.10;99.90;;;;;;4976654;28;19926;-84
2022/04/03 04:04:47;;;;;;;;;;;2.20;99.90;;;;;;4976234;28;19981;-84
2022/04/03 04:07:13;;;;;;;;;;;3.60;99.90;;;;;;4976480;28;19973;-84
2022/04/03 04:09:41;;;;;;;;;;;4.60;99.90;;;;;;4976318;28;19926;-84
2022/04/03 04:12:09;;;;;;;;;;;2.80;99.90;;;;;;4976169;28;19954;-83
2022/04/03 04:14:36;;;;;;;;;;;2.10;99.90;;;;;;4976001;28;19961;-84
2022/04/03 04:17:05;;;;;;;;;;;2.10;99.90;;;;;;4976335;28;20288;-84
2022/04/03 04:19:31;;;;;;;;;;;2.10;99.90;;;;;;4976260;28;19988;-84
2022/04/03 04:21:58;;;;;;;;;;;2.10;99.90;;;;;;4976197;28;19984;-83
2022/04/03 04:24:25;;;;;;;;;;;4.80;99.90;;;;;;4975957;28;19965;-83
2022/04/03 04:26:52;;;;;;;;;;;2.50;99.90;;;;;;4975892;28;20369;-84
2022/04/03 04:29:18;;;;;;;;;;;3.00;99.90;;;;;;4975997;28;20392;-84
2022/04/03 04:31:45;;;;;;;;;;;2.60;99.90;;;;;;4975894;28;19954;-84
2022/04/03 04:34:13;;;;;;;;;;;2.40;99.90;;;;;;4975877;28;19926;-85
2022/04/03 04:36:40;;;;;;;;;;;2.40;99.90;;;;;;4975680;28;19976;-85
2022/04/03 04:39:07;;;;;;;;;;;2.50;99.90;;;;;;4975771;28;20443;-84
2022/04/03 04:41:34;;;;;;;;;;;0.40;99.90;;;;;;4975514;28;20440;-84
2022/04/03 04:44:00;;;;;;;;;;;2.60;99.90;;;;;;4975448;28;19972;-85
2022/04/03 04:46:27;;;;;;;;;;;2.50;99.90;;;;;;4975502;28;20391;-85
2022/04/03 04:48:54;;;;;;;;;;;2.80;99.90;;;;;;4976243;28;19948;-85
2022/04/03 04:51:22;;;;;;;;;;;2.40;99.90;;;;;;4976027;28;20392;-85
2022/04/03 04:53:49;;;;;;;;;;;2.40;99.90;;;;;;4976352;28;19968;-84
2022/04/03 04:56:16;;;;;;;;;;;2.50;99.90;;;;;;4976338;28;19969;-84
2022/04/03 04:58:45;;;;;;;;;;;2.50;99.90;;;;;;4975135;28;19930;-83
2022/04/03 05:01:11;;;;;;;;;;;2.60;99.90;;;;;;4974924;28;20377;-83
2022/04/03 05:03:38;;;;;;;;;;;2.60;99.90;;;;;;4974766;28;19969;-83
2022/04/03 05:06:05;;;;;;;;;;;2.60;99.90;;;;;;4974778;28;20385;-85
2022/04/03 05:08:33;;;;;;;;;;;3.30;99.90;;;;;;4974477;28;20345;-85
2022/04/03 05:11:00;;;;;;;;;;;2.60;99.90;;;;;;4974727;28;20085;-85
2022/04/03 05:13:28;;;;;;;;;;;2.70;99.90;;;;;;4975348;28;19976;-85
2022/04/03 05:15:54;;;;;;;;;;;3.60;99.90;;;;;;4975098;28;19950;-83
2022/04/03 05:18:21;;;;;;;;;;;2.70;99.90;;;;;;4975272;28;19973;-83
2022/04/03 05:20:48;;;;;;;;;;;3.70;99.90;;;;;;4975098;28;19977;-83
2022/04/03 05:23:15;;;;;;;;;;;3.40;99.90;;;;;;4974331;28;19980;-83
2022/04/03 05:25:43;;;;;;;;;;;2.50;99.90;;;;;;4974602;28;20443;-83
2022/04/03 05:28:12;;;;;;;;;;;2.40;99.90;;;;;;4975120;28;19981;-83
2022/04/03 05:30:40;;;;;;;;;;;2.30;99.90;;;;;;4974911;28;20376;-83
2022/04/03 05:33:06;;;;;;;;;;;1.50;99.90;;;;;;4981032;28;19937;-83
2022/04/03 05:35:33;;;;;;;;;;;4.10;99.90;;;;;;4994361;28;19984;-86
2022/04/03 05:38:00;;;;;;;;;;;2.60;99.90;;;;;;4994210;28;19973;-86
2022/04/03 05:40:27;;;;;;;;;;;2.80;99.90;;;;;;4994454;28;19930;-85
2022/04/03 05:42:55;;;;;;;;;;;2.80;99.90;;;;;;4994266;28;19926;-86
2022/04/03 05:45:21;;;;;;;;;;;2.80;99.90;;;;;;4994151;28;19926;-85
2022/04/03 05:47:48;;;;;;;;;;;3.00;99.90;;;;;;4994207;28;19965;-83
2022/04/03 05:50:15;;;;;;;;;;;2.20;99.90;;;;;;4994290;28;20025;-84
2022/04/03 05:52:43;;;;;;;;;;;3.20;99.90;;;;;;4994433;28;19929;-83
2022/04/03 05:55:10;;;;;;;;;;;1.40;99.90;;;;;;4994081;28;19949;-83
2022/04/03 05:57:37;;;;;;;;;;;2.70;99.90;;;;;;4993977;28;19993;-85
2022/04/03 06:00:12;;;;;;;;;;;2.80;99.90;;;;;;4994404;28;19926;-84
2022/04/03 06:02:43;;;;;;;;;;;2.80;99.90;;;;;;4993989;28;19930;-84
2022/04/03 06:05:09;;;;;;;;;;;2.50;99.90;;;;;;4993847;28;19957;-84
2022/04/03 06:07:37;;;;;;;;;;;2.40;99.90;;;;;;4994350;28;19930;-84
2022/04/03 06:10:04;;;;;;;;;;;3.40;99.90;;;;;;4995877;28;19933;-84
2022/04/03 06:12:31;;;;;;;;;;;2.50;99.90;;;;;;4997761;28;19957;-84
2022/04/03 06:14:57;;;;;;;;;;;1.60;99.90;;;;;;4997953;28;20343;-84
2022/04/03 06:17:26;;;;;;;;;;;2.50;99.90;;;;;;4997664;28;19925;-84
2022/04/03 06:19:53;;;;;;;;;;;3.40;99.90;;;;;;4997894;28;20015;-84
2022/04/03 06:22:19;;;;;;;;;;;2.50;99.90;;;;;;4997849;28;20296;-84
2022/04/03 06:24:46;;;;;;;;;;;2.60;99.90;;;;;;4997282;28;19932;-84
2022/04/03 06:27:13;;;;;;;;;;;5.20;99.90;;;;;;4997429;28;19926;-84
2022/04/03 06:29:40;;;;;;;;;;;3.30;99.90;;;;;;4997475;28;20028;-84
2022/04/03 06:32:07;;;;;;;;;;;2.70;99.90;;;;;;4997512;28;20012;-85
2022/04/03 06:34:35;;;;;;;;;;;2.70;99.90;;;;;;4979611;28;20468;-84
2022/04/03 06:37:03;;;;;;;;;;;2.70;99.90;;;;;;4978087;28;19957;-84
2022/04/03 06:39:29;;;;;;;;;;;2.70;99.90;;;;;;4977536;28;19926;-84
2022/04/03 06:41:56;;;;;;;;;;;3.30;99.90;;;;;;4978556;28;19926;-84
2022/04/03 06:44:23;;;;;;;;;;;2.90;99.90;;;;;;4977945;28;19933;-84
2022/04/03 06:46:50;;;;;;;;;;;2.80;99.90;;;;;;4977769;28;20286;-85
2022/04/03 06:49:17;;;;;;;;;;;4.20;99.90;;;;;;4978124;28;20358;-84
2022/04/03 06:51:45;;;;;;;;;;;3.30;99.90;;;;;;4977867;28;19973;-84
2022/04/03 06:54:12;;;;;;;;;;;3.50;99.90;;;;;;4977290;28;19972;-84
2022/04/03 06:56:38;;;;;;;;;;;4.60;99.90;;;;;;4977990;28;19985;-84
2022/04/03 06:59:06;;;;;;;;;;;3.80;99.90;;;;;;4977623;28;19969;-84
2022/04/03 07:01:32;;;;;;;;;;;4.60;99.90;;;;;;4977659;28;19926;-84
2022/04/03 07:03:59;;;;;;;;;;;3.90;99.90;;;;;;4977954;28;20344;-85
2022/04/03 07:06:28;;;;;;;;;;;3.20;99.90;;;;;;4977493;28;19935;-84
2022/04/03 07:08:57;;;;;;;;;;;3.20;99.90;;;;;;4977801;28;20436;-85
2022/04/03 07:11:23;;;;;;;;;;;3.30;99.90;;;;;;4978784;28;19930;-84
2022/04/03 07:13:50;;;;;;;;;;;2.70;99.90;;;;;;4978522;28;19926;-84
2022/04/03 07:16:17;;;;;;;;;;;4.40;99.90;;;;;;4983898;28;19930;-83
2022/04/03 07:18:44;;;;;;;;;;;4.20;99.90;;;;;;4978535;28;19926;-83
2022/04/03 07:21:10;;;;;;;;;;;3.50;99.90;;;;;;4976848;28;20348;-83
2022/04/03 07:23:37;;;;;;;;;;;3.30;99.90;;;;;;4976819;28;19930;-84
2022/04/03 07:26:06;;;;;;;;;;;3.70;99.90;;;;;;4976648;28;19973;-84
2022/04/03 07:28:32;;;;;;;;;;;3.80;99.90;;;;;;4976670;28;19958;-84
2022/04/03 07:30:59;;;;;;;;;;;3.50;99.90;;;;;;4976400;28;20391;-84
2022/04/03 07:33:26;;;;;;;;;;;3.50;99.90;;;;;;4976188;28;19926;-84
2022/04/03 07:35:53;;;;;;;;;;;3.50;99.90;;;;;;4976452;28;19926;-84
2022/04/03 07:38:20;;;;;;;;;;;4.40;99.90;;;;;;4977195;28;19926;-84
2022/04/03 07:40:47;;;;;;;;;;;3.70;99.90;;;;;;4976854;28;19926;-85
2022/04/03 07:43:16;;;;;;;;;;;3.80;99.90;;;;;;4977226;28;19944;-84
2022/04/03 07:45:43;;;;;;;;;;;4.30;99.90;;;;;;4976837;28;19926;-84
2022/04/03 07:48:10;;;;;;;;;;;3.50;99.90;;;;;;4960052;28;19977;-83
2022/04/03 07:50:37;;;;;;;;;;;4.10;99.90;;;;;;4976771;28;19926;-84
2022/04/03 07:53:04;;;;;;;;;;;4.00;99.90;;;;;;4976656;28;19954;-84
2022/04/03 07:55:31;;;;;;;;;;;4.00;99.90;;;;;;4980459;28;19930;-84
2022/04/03 07:57:58;;;;;;;;;;;6.10;99.90;;;;;;4984451;28;20401;-85
2022/04/03 08:00:27;;;;;;;;;;;5.10;99.90;;;;;;4988581;28;20308;-85
2022/04/03 08:02:53;;;;;;;;;;;4.40;99.90;;;;;;4986039;28;19926;-85
2022/04/03 08:05:29;;;;;;;;;;;4.30;99.90;;;;;;4983253;28;19926;-84
2022/04/03 08:07:56;;;;;;;;;;;4.40;99.90;;;;;;4987713;28;19933;-85
2022/04/03 08:10:23;;;;;;;;;;;4.50;99.90;;;;;;4992398;28;19926;-85
2022/04/03 08:12:50;;;;;;;;;;;4.90;99.90;;;;;;4981034;28;20372;-84
2022/04/03 08:15:20;;;;;;;;;;;5.00;99.90;;;;;;4989920;28;19926;-84
2022/04/03 08:17:48;;;;;;;;;;;5.10;99.90;;;;;;4986842;28;19926;-84
2022/04/03 08:20:16;;;;;;;;;;;5.60;99.90;;;;;;4986770;28;19929;-84
2022/04/03 08:22:43;;;;;;;;;;;5.30;99.90;;;;;;4980227;28;20274;-84
2022/04/03 08:25:10;;;;;;;;;;;4.50;99.90;;;;;;4979828;28;19930;-84
2022/04/03 08:27:42;;;;;;;;;;;5.50;99.90;;;;;;4991351;28;20365;-85
2022/04/03 08:30:10;;;;;;;;;;;4.10;99.90;;;;;;4983380;28;19929;-85
2022/04/03 08:32:36;;;;;;;;;;;5.10;99.90;;;;;;4985190;28;19940;-85
2022/04/03 08:35:05;;;;;;;;;;;4.90;99.90;;;;;;4983254;28;19981;-85
2022/04/03 08:37:32;;;;;;;;;;;5.10;99.90;;;;;;4963515;28;19949;-84
2022/04/03 08:39:59;;;;;;;;;;;3.50;99.90;;;;;;4975755;28;20021;-85
2022/04/03 08:42:25;;;;;;;;;;;6.00;99.90;;;;;;4968754;28;19926;-84
2022/04/03 08:44:52;;;;;;;;;;;6.70;99.90;;;;;;4977246;28;19926;-85
2022/04/03 08:47:20;;;;;;;;;;;5.70;99.90;;;;;;4975259;28;19957;-85
2022/04/03 08:49:48;;;;;;;;;;;5.70;99.90;;;;;;4974614;28;20378;-85
2022/04/03 08:52:16;;;;;;;;;;;5.70;99.90;;;;;;4975216;28;19926;-85
2022/04/03 08:54:42;;;;;;;;;;;6.00;99.90;;;;;;4975525;28;19992;-85
2022/04/03 08:57:09;;;;;;;;;;;4.20;99.90;;;;;;4975402;28;19926;-84
2022/04/03 08:59:37;;;;;;;;;;;6.20;99.90;;;;;;4975421;28;19926;-86
2022/04/03 09:02:04;;;;;;;;;;;5.60;99.90;;;;;;4975459;28;19926;-84
2022/04/03 09:04:31;;;;;;;;;;;7.20;99.90;;;;;;4975826;28;19989;-85
2022/04/03 09:06:59;;;;;;;;;;;6.70;99.90;;;;;;4975344;28;19926;-85
2022/04/03 09:09:28;;;;;;;;;;;7.00;99.90;;;;;;4975153;28;19972;-86
2022/04/03 09:12:07;;;;;;;;;;;7.30;99.90;;;;;;4975320;28;19969;-84
2022/04/03 09:14:34;;;;;;;;;;;7.50;99.90;;;;;;4975244;28;19930;-85
2022/04/03 09:17:01;;;;;;;;;;;7.90;99.90;;;;;;4975422;28;19981;-85
2022/04/03 09:19:32;;;;;;;;;;;7.70;99.90;;;;;;4975299;28;19926;-85
2022/04/03 09:21:59;;;;;;;;;;;7.60;99.90;;;;;;4975638;28;20424;-85
2022/04/03 09:24:34;;;;;;;;;;;7.40;99.90;;;;;;4975301;28;20036;-85
2022/04/03 09:27:02;;;;;;;;;;;9.90;99.90;;;;;;4974845;28;20379;-84
2022/04/03 09:29:30;;;;;;;;;;;7.70;99.90;;;;;;4975839;28;19949;-85
2022/04/03 09:31:58;;;;;;;;;;;7.20;99.90;;;;;;4975545;28;19984;-85
2022/04/03 09:34:33;;;;;;;;;;;7.60;99.90;;;;;;4993138;28;19926;-85
2022/04/03 09:37:00;;;;;;;;;;;5.10;99.90;;;;;;4995852;28;19933;-86
2022/04/03 09:39:29;;;;;;;;;;;7.80;99.90;;;;;;4995046;28;20400;-84
2022/04/03 09:42:05;;;;;;;;;;;8.20;99.90;;;;;;4993812;28;20400;-85
2022/04/03 09:44:33;;;;;;;;;;;8.10;99.90;;;;;;4994876;28;20300;-85
2022/04/03 09:47:13;;;;;;;;;;;7.90;99.90;;;;;;4997908;28;19925;-85
2022/04/03 09:49:40;;;;;;;;;;;7.80;99.90;;;;;;4998655;28;20331;-85
2022/04/03 09:52:07;;;;;;;;;;;8.20;99.90;;;;;;4999437;28;19926;-84
2022/04/03 09:54:34;;;;;;;;;;;8.40;99.90;;;;;;4997736;28;20308;-84
2022/04/03 09:57:15;;;;;;;;;;;8.20;99.90;;;;;;4997495;28;19929;-85
2022/04/03 09:59:49;;;;;;;;;;;8.20;99.90;;;;;;4998149;28;19961;-85
2022/04/03 10:02:17;;;;;;;;;;;8.60;99.90;;;;;;4997952;28;19926;-85
2022/04/03 10:04:44;;;;;;;;;;;10.70;99.90;;;;;;4997721;28;19941;-84
2022/04/03 10:07:13;;;;;;;;;;;8.40;99.90;;;;;;4997827;28;20309;-84
2022/04/03 10:09:45;;;;;;;;;;;8.20;99.90;;;;;;4998015;28;19965;-84
2022/04/03 10:12:15;;;;;;;;;;;8.30;99.90;;;;;;4997748;28;19926;-85
2022/04/03 10:14:43;;;;;;;;;;;8.30;99.90;;;;;;4998323;28;19973;-84
2022/04/03 10:17:13;;;;;;;;;;;8.50;99.90;;;;;;4996834;28;19926;-85
2022/04/03 10:19:40;;;;;;;;;;;8.40;99.90;;;;;;4997426;28;19932;-85
2022/04/03 10:22:10;;;;;;;;;;;8.50;99.90;;;;;;4997563;28;19964;-85
2022/04/03 10:24:37;;;;;;;;;;;8.70;99.90;;;;;;4997532;28;20277;-85
2022/04/03 10:27:05;;;;;;;;;;;8.80;99.90;;;;;;4997506;28;19961;-84
2022/04/03 10:29:34;;;;;;;;;;;8.80;99.90;;;;;;4999180;28;20281;-84
2022/04/03 10:32:03;;;;;;;;;;;8.40;99.90;;;;;;4998961;28;19956;-85
2022/04/03 10:34:45;;;;;;;;;;;9.00;99.90;;;;;;4996537;28;20307;-85
2022/04/03 10:37:22;;;;;;;;;;;9.10;99.90;;;;;;4998130;28;19984;-84
2022/04/03 10:39:51;;;;;;;;;;;9.30;99.90;;;;;;4997619;28;19976;-84
2022/04/03 10:42:25;;;;;;;;;;;9.10;99.90;;;;;;4998796;28;19930;-83
2022/04/03 10:45:10;;;;;;;;;;;7.90;99.90;;;;;;4999664;28;19967;-85
2022/04/03 10:47:37;;;;;;;;;;;8.50;99.90;;;;;;4997079;28;19925;-86
2022/04/03 10:50:06;;;;;;;;;;;8.30;99.90;;;;;;4997675;28;19932;-86
2022/04/03 10:52:51;;;;;;;;;;;8.20;99.90;;;;;;4997471;28;19925;-85
2022/04/03 10:55:20;;;;;;;;;;;8.10;99.90;;;;;;4996701;28;19977;-86
2022/04/03 10:57:48;;;;;;;;;;;7.20;99.90;;;;;;4998929;28;19988;-85
2022/04/03 11:00:38;;;;;;;;;;;8.00;99.90;;;;;;4997155;28;19926;-86
2022/04/03 11:03:24;;;;;;;;;;;8.20;99.90;;;;;;4997297;28;19938;-86
2022/04/03 11:05:55;;;;;;;;;;;8.20;99.90;;;;;;4997146;28;19973;-86
2022/04/03 11:08:41;;;;;;;;;;;8.00;99.90;;;;;;4997093;28;20284;-85
2022/04/03 11:11:09;;;;;;;;;;;8.00;99.90;;;;;;4996855;28;20334;-86
2022/04/03 11:13:39;;;;;;;;;;;8.00;99.90;;;;;;4998207;28;19926;-86
2022/04/03 11:16:06;;;;;;;;;;;8.10;99.90;;;;;;4996796;28;20388;-86
2022/04/03 11:18:33;;;;;;;;;;;8.10;99.90;;;;;;4996737;28;19926;-86
2022/04/03 11:21:11;;;;;;;;;;;8.30;99.90;;;;;;4996844;28;19929;-86
2022/04/03 11:23:42;;;;;;;;;;;8.40;99.90;;;;;;4996344;28;19925;-85
2022/04/03 11:26:09;;;;;;;;;;;8.60;99.90;;;;;;4995426;28;19980;-84
2022/04/03 11:28:36;;;;;;;;;;;8.90;99.90;;;;;;4997110;28;19996;-84
2022/04/03 11:31:03;;;;;;;;;;;9.10;99.90;;;;;;4996531;28;19988;-84
2022/04/03 11:33:31;;;;;;;;;;;9.40;99.90;;;;;;4996381;28;19929;-84
2022/04/03 11:36:03;;;;;;;;;;;9.50;99.90;;;;;;4996898;28;19929;-84
2022/04/03 11:38:35;;;;;;;;;;;9.80;99.90;;;;;;4996972;28;19929;-84
2022/04/03 11:41:03;;;;;;;;;;;9.90;99.90;;;;;;4997638;28;19925;-84
2022/04/03 11:43:30;;;;;;;;;;;9.90;99.90;;;;;;4996379;28;20036;-84
2022/04/03 11:45:57;;;;;;;;;;;9.70;99.90;;;;;;4999907;28;19925;-84
2022/04/03 11:48:24;;;;;;;;;;;9.40;99.90;;;;;;5000941;28;19926;-84
2022/04/03 11:51:03;;;;;;;;;;;9.30;99.90;;;;;;5000782;28;19949;-84
2022/04/03 11:53:30;;;;;;;;;;;9.50;99.90;;;;;;5000408;28;19976;-83
2022/04/03 11:56:06;;;;;;;;;;;10.00;99.90;;;;;;4997206;28;20320;-84
2022/04/03 11:58:33;;;;;;;;;;;10.20;99.90;;;;;;4995882;28;19925;-84
2022/04/03 12:01:01;;;;;;;;;;;10.30;99.90;;;;;;4995370;28;20071;-85
2022/04/03 12:03:28;;;;;;;;;;;10.00;99.90;;;;;;4995718;28;19925;-84
2022/04/03 12:06:14;;;;;;;;;;;9.70;99.90;;;;;;4995891;28;20289;-85
2022/04/03 12:08:41;;;;;;;;;;;9.90;99.00;;;;;;4994972;28;19926;-86
2022/04/03 12:11:19;;;;;;;;;;;9.70;98.40;;;;;;4997526;28;20017;-84
2022/04/03 12:13:47;;;;;;;;;;;11.00;98.30;;;;;;4994690;28;19933;-85
2022/04/03 12:16:18;;;;;;;;;;;10.50;99.90;;;;;;4995310;28;19926;-84
2022/04/03 12:18:53;;;;;;;;;;;10.30;99.00;;;;;;4996058;28;20012;-84
2022/04/03 12:21:22;;;;;;;;;;;11.30;99.30;;;;;;4994860;28;19936;-85
2022/04/03 12:24:19;;;;;;;;;;;10.20;99.90;;;;;;4994872;28;19933;-85
2022/04/03 12:26:51;;;;;;;;;;;13.10;99.90;;;;;;4934637;29;19927;-85
2022/04/03 12:29:19;;;;;;;;;;;9.90;99.70;;;;;;4983845;28;19972;-83
2022/04/03 12:31:56;;;;;;;;;;;10.60;99.40;;;;;;4996763;28;19925;-84
2022/04/03 12:34:22;;;;;;;;;;;10.70;98.80;;;;;;4996419;28;19980;-83
2022/04/03 12:36:50;;;;;;;;;;;10.90;98.30;;;;;;4995557;28;19930;-84
2022/04/03 12:39:36;;;;;;;;;;;11.00;96.20;;;;;;4996516;28;19930;-84
2022/04/03 12:42:20;;;;;;;;;;;11.00;95.70;;;;;;4995311;28;19949;-84
2022/04/03 12:44:49;;;;;;;;;;;11.40;94.20;;;;;;4995702;28;19932;-84
2022/04/03 12:47:16;;;;;;;;;;;11.30;94.30;;;;;;4994724;28;20403;-85
2022/04/03 12:49:49;;;;;;;;;;;9.80;94.60;;;;;;4995374;28;19926;-84
2022/04/03 12:52:19;;;;;;;;;;;11.20;95.90;;;;;;4995707;28;20340;-83
2022/04/03 12:54:46;;;;;;;;;;;10.80;96.60;;;;;;4992606;28;20411;-84
2022/04/03 13:00:16;;;;;;;;;;;10.30;97.50;;;;;;4973395;28;20076;-86
2022/04/03 13:02:43;;;;;;;;;;;10.20;98.90;;;;;;4989237;28;19929;-83
2022/04/03 13:05:13;;;;;;;;;;;9.80;98.50;;;;;;4993761;28;20373;-86
2022/04/03 13:07:39;;;;;;;;;;;10.30;99.40;;;;;;4995956;28;19976;-86
2022/04/03 13:10:07;;;;;;;;;;;10.00;98.90;;;;;;4996653;28;20376;-86
2022/04/03 13:12:38;;;;;;;;;;;10.30;98.60;;;;;;4996210;28;20396;-86
2022/04/03 13:15:05;;;;;;;;;;;10.70;97.00;;;;;;4988570;28;20017;-86
2022/04/03 13:17:32;;;;;;;;;;;10.60;95.60;;;;;;4993032;28;19942;-87
2022/04/03 13:19:59;;;;;;;;;;;10.30;96.60;;;;;;4994607;28;20371;-85
2022/04/03 13:22:26;;;;;;;;;;;10.40;97.00;;;;;;4994673;28;20377;-85
2022/04/03 13:24:53;;;;;;;;;;;10.30;97.60;;;;;;4994050;28;20359;-86
2022/04/03 13:27:20;;;;;;;;;;;10.40;98.00;;;;;;4995088;28;19929;-87
2022/04/03 13:29:48;;;;;;;;;;;10.40;97.60;;;;;;4994752;28;19926;-86
2022/04/03 13:32:19;;;;;;;;;;;10.40;96.80;;;;;;4993956;28;20368;-86
2022/04/03 13:34:47;;;;;;;;;;;10.50;96.10;;;;;;4995122;28;19989;-86
2022/04/03 13:37:14;;;;;;;;;;;10.70;94.90;;;;;;4996154;28;19925;-86
2022/04/03 13:39:41;;;;;;;;;;;11.10;95.20;;;;;;4994563;28;19926;-85
2022/04/03 13:42:10;;;;;;;;;;;10.90;95.60;;;;;;4995084;28;19926;-85
2022/04/03 13:44:37;;;;;;;;;;;11.50;94.90;;;;;;4994493;28;19926;-85
2022/04/03 13:47:09;;;;;;;;;;;11.10;94.90;;;;;;4995221;28;19926;-85
2022/04/03 13:49:36;;;;;;;;;;;10.80;95.30;;;;;;4994300;28;20380;-86
2022/04/03 13:52:03;;;;;;;;;;;10.70;94.60;;;;;;4994419;28;19925;-86
2022/04/03 13:54:30;;;;;;;;;;;10.80;95.10;;;;;;4994909;28;19926;-85
2022/04/03 13:56:57;;;;;;;;;;;10.70;93.40;;;;;;4994022;28;19925;-86
2022/04/03 13:59:23;;;;;;;;;;;11.20;93.80;;;;;;4994040;28;19988;-84
2022/04/03 14:01:50;;;;;;;;;;;10.60;95.30;;;;;;4996631;28;19926;-85
2022/04/03 14:04:19;;;;;;;;;;;11.20;97.20;;;;;;4996543;28;19926;-85
2022/04/03 14:06:45;;;;;;;;;;;9.30;94.60;;;;;;4996486;28;19925;-85
2022/04/03 14:09:12;;;;;;;;;;;10.90;94.90;;;;;;4997815;28;19993;-85
2022/04/03 14:11:39;;;;;;;;;;;11.00;95.20;;;;;;4995500;28;20327;-85
2022/04/03 14:14:06;;;;;;;;;;;10.70;94.30;;;;;;4996129;28;19936;-84
2022/04/03 14:16:34;;;;;;;;;;;10.80;93.80;;;;;;4998321;28;19926;-87
2022/04/03 14:19:01;;;;;;;;;;;10.80;95.00;;;;;;4995478;28;19930;-85
2022/04/03 14:21:32;;;;;;;;;;;11.00;94.20;;;;;;4993837;28;19926;-83
2022/04/03 14:23:58;;;;;;;;;;;10.80;95.20;;;;;;4994029;28;19926;-84
2022/04/03 14:26:25;;;;;;;;;;;10.60;95.50;;;;;;4976963;28;19992;-85
2022/04/03 14:28:52;;;;;;;;;;;10.50;96.10;;;;;;4994525;28;20417;-84
2022/04/03 14:31:19;;;;;;;;;;;10.50;95.60;;;;;;4995876;28;19980;-85
2022/04/03 14:33:45;;;;;;;;;;;10.50;95.80;;;;;;4986409;28;19973;-84
2022/04/03 14:36:14;;;;;;;;;;;13.80;96.30;;;;;;4977638;28;20740;-84
2022/04/03 14:38:42;;;;;;;;;;;10.40;95.80;;;;;;4977706;28;19926;-84